Accueil
METAR-TAF:

METAR-TAF

Aéroports :

Payerne, Suisse

Aérodrome de Payerne

latitude: 46-49N, longitude: 006-57E, altitude: 490 m

Observation

Le bulletin a été fait il y a 53 minutes, à 09:50 UTC
Vent 17 kt de est/nord-est, variant entre nord/nord-est et est
Température -2°C
Humidité 80%
Pression 1010 hPa
Visibilité: 7000 m
Ciel couvert à une hauteur de 2000 ft
faibles averses de neige

METAR: LSMP 220950Z 06017KT 030V090 7000 -SHSN OVC020 M02/M05 Q1010 RMK WHT

Heure: 11:43 (10:43 UTC)


TAF: absent

Observations et prévisions météorologiques de plus de 4000 aéroports (messages METAR et TAF).

Les stations disponibles sont représentées par des disques jaunes et rouges sur la carte.

Passer la souris dessus pour voir le nom de la station.

Cliquer dessus pour voir les observations et prévisions météorologiques.

Pour changer de carte: cliquez sur les boutons verts avec une croix noire pour zoomer, sur le bouton vert avec un tiret pour effectuer un zoom arrière, ou sur les flèches vertes pour les cartes adjacentes.


METAR-TAF: